Time;durP1;ratioP1;P1;durP2;ratioP2;P2;SDS_P1;SDS_P2;PMS_P1;PMS_P2;Temp;Humidity;BMP_temperature;BMP_pressure;BME280_temperature;BME280_humidity;BME280_pressure;Samples;Min_cycle;Max_cycle;Signal;HPM_P1;HPM_P2
2020/12/15 00:02:22;;;;;;;1999.90;999.90;;;;;;;2.60;91.88;98454.94;5027468;28;20049;-66
2020/12/15 00:04:48;;;;;;;1999.90;999.90;;;;;;;2.73;90.47;98454.41;5018783;28;20505;-65
2020/12/15 00:07:14;;;;;;;1999.90;999.90;;;;;;;2.28;91.64;98458.72;5027499;28;20115;-65
2020/12/15 00:09:40;;;;;;;1999.90;999.90;;;;;;;2.70;91.12;98460.41;5027062;28;20084;-65
2020/12/15 00:12:07;;;;;;;1999.90;999.90;;;;;;;2.58;90.19;98448.94;5027086;28;20049;-65
2020/12/15 00:14:33;;;;;;;1999.90;999.90;;;;;;;2.39;91.03;98465.00;5027595;28;20046;-65
2020/12/15 00:16:59;;;;;;;1999.90;999.90;;;;;;;2.30;91.38;98459.25;5027438;28;20053;-65
2020/12/15 00:19:26;;;;;;;1999.90;999.90;;;;;;;2.20;91.83;98462.75;5020599;28;20129;-65
2020/12/15 00:21:54;;;;;;;1999.90;999.90;;;;;;;1.89;93.38;98457.19;5023049;28;20437;-65
2020/12/15 00:24:20;;;;;;;1999.90;999.90;;;;;;;2.14;92.45;98463.81;5027200;28;20046;-65
2020/12/15 00:26:46;;;;;;;1999.90;999.90;;;;;;;2.27;91.78;98462.50;5027178;28;20045;-65
2020/12/15 00:29:13;;;;;;;1999.90;999.90;;;;;;;2.25;91.25;98462.78;5027038;28;20057;-65
2020/12/15 00:31:40;;;;;;;1999.90;999.90;;;;;;;2.52;89.89;98460.94;5027323;28;20045;-65
2020/12/15 00:34:06;;;;;;;1999.90;999.90;;;;;;;2.21;90.76;98469.84;5026662;28;20053;-65
2020/12/15 00:36:33;;;;;;;1999.90;999.90;;;;;;;2.40;90.18;98472.91;5027527;28;20417;-65
2020/12/15 00:38:59;;;;;;;1999.90;999.90;;;;;;;2.10;90.76;98468.19;5027211;28;20113;-65
2020/12/15 00:41:25;;;;;;;1999.90;999.90;;;;;;;1.99;91.55;98470.03;5026342;28;20042;-65
2020/12/15 00:43:51;;;;;;;1999.90;999.90;;;;;;;1.87;92.08;98461.28;5026950;28;20057;-65
2020/12/15 00:46:18;;;;;;;1999.90;999.90;;;;;;;1.89;92.58;98461.81;5026090;28;20034;-65
2020/12/15 00:48:45;;;;;;;1999.90;999.90;;;;;;;2.22;90.62;98473.41;5026744;28;20076;-65
2020/12/15 00:51:15;;;;;;;1999.90;999.90;;;;;;;2.27;89.78;98473.44;5026638;28;20053;-65
2020/12/15 00:53:42;;;;;;;1999.90;999.90;;;;;;;2.26;89.62;98466.31;5027116;28;20045;-66
2020/12/15 00:56:08;;;;;;;1999.90;999.90;;;;;;;1.91;91.13;98471.38;5026430;28;20057;-66
2020/12/15 00:58:35;;;;;;;1999.90;999.90;;;;;;;2.16;90.27;98474.47;5026840;28;20038;-65
2020/12/15 01:01:03;;;;;;;1999.90;999.90;;;;;;;2.26;89.88;98478.06;5026192;28;20045;-65
2020/12/15 01:03:30;;;;;;;1999.90;999.90;;;;;;;2.42;89.07;98481.66;5026693;28;20076;-65
2020/12/15 01:05:56;;;;;;;1999.90;999.90;;;;;;;2.60;87.80;98487.69;5026080;28;20045;-65
2020/12/15 01:08:22;;;;;;;1999.90;999.90;;;;;;;2.30;88.65;98483.81;5026533;28;20041;-66
2020/12/15 01:10:49;;;;;;;1999.90;999.90;;;;;;;2.49;88.14;98480.56;5025517;28;20103;-66
2020/12/15 01:13:16;;;;;;;1999.90;999.90;;;;;;;2.90;86.16;98486.09;5024043;28;20590;-66
2020/12/15 01:15:42;;;;;;;1999.90;999.90;;;;;;;2.96;85.38;98482.28;5026507;28;20045;-65
2020/12/15 01:18:08;;;;;;;1999.90;999.90;;;;;;;3.03;84.71;98476.56;5026265;28;20049;-66
2020/12/15 01:20:34;;;;;;;1999.90;999.90;;;;;;;3.12;84.01;98478.44;5025924;28;20053;-66
2020/12/15 01:23:01;;;;;;;1999.90;999.90;;;;;;;2.93;84.24;98475.47;5026228;28;20545;-64
2020/12/15 01:25:27;;;;;;;1999.90;999.90;;;;;;;2.90;84.84;98486.09;5026046;28;20349;-64
2020/12/15 01:27:54;;;;;;;1999.90;999.90;;;;;;;3.00;84.11;98476.00;5026015;28;20081;-65
2020/12/15 01:30:20;;;;;;;1999.90;999.90;;;;;;;2.76;84.86;98469.44;5022049;28;20710;-64
2020/12/15 01:32:46;;;;;;;1999.90;999.90;;;;;;;2.63;85.75;98468.88;5026025;28;20127;-65
2020/12/15 01:35:12;;;;;;;1999.90;999.90;;;;;;;2.69;85.54;98461.50;5026110;28;20130;-65
2020/12/15 01:37:38;;;;;;;1999.90;999.90;;;;;;;2.65;85.26;98457.69;5025899;28;20096;-66
2020/12/15 01:40:05;;;;;;;1999.90;999.90;;;;;;;2.73;84.75;98468.06;5026070;28;20050;-66
2020/12/15 01:42:31;;;;;;;1999.90;999.90;;;;;;;2.60;85.12;98460.41;5025972;28;20057;-63
2020/12/15 01:44:57;;;;;;;1999.90;999.90;;;;;;;2.66;85.00;98448.38;5025215;28;20072;-65
2020/12/15 01:47:24;;;;;;;1999.90;999.90;;;;;;;2.98;83.93;98453.59;5057922;28;20056;-65
2020/12/15 01:49:52;;;;;;;1999.90;999.90;;;;;;;3.17;83.09;98442.94;5025604;28;20083;-65
2020/12/15 01:52:18;;;;;;;1999.90;999.90;;;;;;;3.24;82.09;98448.09;5025301;28;20099;-65
2020/12/15 01:54:45;;;;;;;1999.90;999.90;;;;;;;3.17;82.40;98448.41;5025751;28;20061;-66
2020/12/15 01:57:11;;;;;;;1999.90;999.90;;;;;;;3.43;81.71;98448.34;5023258;28;20115;-66
2020/12/15 01:59:38;;;;;;;1999.90;999.90;;;;;;;3.18;81.64;98451.94;5025576;28;20136;-64
2020/12/15 02:02:04;;;;;;;1999.90;999.90;;;;;;;2.85;82.56;98445.13;5025667;28;20680;-65
2020/12/15 02:04:30;;;;;;;1999.90;999.90;;;;;;;2.87;83.03;98427.38;5025605;28;20471;-65
2020/12/15 02:06:57;;;;;;;1999.90;999.90;;;;;;;2.76;83.71;98429.28;5056748;28;20091;-64
2020/12/15 02:09:23;;;;;;;1999.90;999.90;;;;;;;2.92;83.06;98415.66;5024501;28;20501;-65
2020/12/15 02:11:49;;;;;;;1999.90;999.90;;;;;;;2.92;83.37;98407.44;5024958;28;20041;-66
2020/12/15 02:14:16;;;;;;;1999.90;999.90;;;;;;;3.20;82.46;98410.69;5025562;28;20045;-65
2020/12/15 02:16:45;;;;;;;1999.90;999.90;;;;;;;3.16;81.83;98411.22;5024639;28;20452;-65
2020/12/15 02:19:16;;;;;;;1999.90;999.90;;;;;;;2.91;82.52;98412.06;5025351;28;20519;-65
2020/12/15 02:22:06;;;;;;;1999.90;999.90;;;;;;;2.86;82.60;98414.81;5024934;28;20089;-65
2020/12/15 02:24:33;;;;;;;1999.90;999.90;;;;;;;2.87;82.76;98412.91;5024983;28;20505;-65
2020/12/15 02:26:59;;;;;;;1999.90;999.90;;;;;;;2.75;83.70;98411.25;5024858;28;20103;-65
2020/12/15 02:29:25;;;;;;;1999.90;999.90;;;;;;;2.83;83.63;98415.38;5024950;28;20489;-66
2020/12/15 02:31:52;;;;;;;1999.90;999.90;;;;;;;2.88;83.01;98417.28;5024915;28;20045;-65
2020/12/15 02:34:18;;;;;;;1999.90;999.90;;;;;;;2.82;83.32;98414.53;5025059;28;20053;-64
2020/12/15 02:36:44;;;;;;;1999.90;999.90;;;;;;;2.77;83.76;98411.81;5012723;28;20378;-64
2020/12/15 02:39:13;;;;;;;1999.90;999.90;;;;;;;2.42;84.95;98409.88;5024802;28;20049;-65
2020/12/15 02:41:39;;;;;;;1999.90;999.90;;;;;;;2.20;85.80;98410.09;5024660;28;20473;-65
2020/12/15 02:44:07;;;;;;;1999.90;999.90;;;;;;;2.89;84.12;98405.25;5024693;28;20057;-66
2020/12/15 02:46:34;;;;;;;1999.90;999.90;;;;;;;2.63;84.19;98418.91;5023280;28;20119;-66
2020/12/15 02:49:00;;;;;;;1999.90;999.90;;;;;;;2.67;83.89;98411.81;5024532;28;20052;-66
2020/12/15 02:51:27;;;;;;;1999.90;999.90;;;;;;;2.57;84.89;98417.25;5022847;28;20061;-64
2020/12/15 02:53:54;;;;;;;1999.90;999.90;;;;;;;2.55;85.13;98419.44;5014027;28;20246;-64
2020/12/15 02:56:24;;;;;;;1999.90;999.90;;;;;;;2.67;84.17;98417.28;5024849;28;20115;-65
2020/12/15 02:58:52;;;;;;;1999.90;999.90;;;;;;;2.83;83.28;98415.38;5024531;28;20054;-65
2020/12/15 03:01:19;;;;;;;1999.90;999.90;;;;;;;2.91;82.97;98417.53;5024246;28;20216;-65
2020/12/15 03:03:46;;;;;;;1999.90;999.90;;;;;;;2.96;82.44;98409.34;5022789;28;20053;-65
2020/12/15 03:06:13;;;;;;;1999.90;999.90;;;;;;;2.89;82.18;98406.06;5024527;28;20049;-66
2020/12/15 03:08:40;;;;;;;1999.90;999.90;;;;;;;2.77;82.83;98406.34;5038129;28;20128;-65
2020/12/15 03:11:07;;;;;;;1999.90;999.90;;;;;;;3.08;81.94;98403.59;5024671;28;20049;-65
2020/12/15 03:13:34;;;;;;;1999.90;999.90;;;;;;;2.89;81.13;98406.06;5024076;28;20536;-64
2020/12/15 03:16:00;;;;;;;1999.90;999.90;;;;;;;2.51;83.47;98405.50;5024490;28;20528;-64
2020/12/15 03:18:28;;;;;;;1999.90;999.90;;;;;;;2.44;83.42;98407.69;5024565;28;20465;-64
2020/12/15 03:20:55;;;;;;;1999.90;999.90;;;;;;;2.67;82.26;98400.06;5024057;28;20049;-64
2020/12/15 03:23:22;;;;;;;1999.90;999.90;;;;;;;2.68;81.76;98410.72;5022340;28;20046;-64
2020/12/15 03:25:54;;;;;;;1999.90;999.90;;;;;;;2.63;81.86;98408.81;5024101;28;20112;-64
2020/12/15 03:28:21;;;;;;;1999.90;999.90;;;;;;;2.62;81.58;98409.06;5012930;28;20041;-64
2020/12/15 03:30:48;;;;;;;1999.90;999.90;;;;;;;2.50;82.03;98413.97;5023932;28;20061;-64
2020/12/15 03:33:14;;;;;;;1999.90;999.90;;;;;;;2.44;81.69;98413.97;5024155;28;20051;-64
2020/12/15 03:35:40;;;;;;;1999.90;999.90;;;;;;;2.57;81.56;98411.81;5026481;28;20127;-64
2020/12/15 03:38:06;;;;;;;1999.90;999.90;;;;;;;2.37;81.40;98407.16;5027979;28;20550;-64
2020/12/15 03:40:32;;;;;;;1999.90;999.90;;;;;;;2.36;82.21;98408.22;5021487;28;20126;-64
2020/12/15 03:42:59;;;;;;;1999.90;999.90;;;;;;;2.47;81.82;98397.06;5027754;28;20057;-64
2020/12/15 03:45:25;;;;;;;1999.90;999.90;;;;;;;2.02;83.08;98392.31;5028152;28;20049;-64
2020/12/15 03:47:51;;;;;;;1999.90;999.90;;;;;;;1.87;83.91;98406.72;5027949;28;20053;-64
2020/12/15 03:50:17;;;;;;;1999.90;999.90;;;;;;;1.99;84.12;98407.31;5028254;28;20069;-64
2020/12/15 03:52:43;;;;;;;1999.90;999.90;;;;;;;1.83;83.50;98402.91;5027729;28;20058;-64
2020/12/15 03:55:10;;;;;;;1999.90;999.90;;;;;;;2.20;83.12;98401.91;5028362;28;20120;-64
2020/12/15 03:57:36;;;;;;;1999.90;999.90;;;;;;;2.14;82.83;98397.53;5027510;28;20045;-64
2020/12/15 04:00:05;;;;;;;1999.90;999.90;;;;;;;2.03;83.85;98393.97;5027631;28;20056;-64
2020/12/15 04:02:31;;;;;;;1999.90;999.90;;;;;;;1.75;84.73;98399.59;5026930;28;20049;-64
2020/12/15 04:04:58;;;;;;;1999.90;999.90;;;;;;;2.08;84.36;98400.28;5027688;28;20144;-64
2020/12/15 04:07:24;;;;;;;1999.90;999.90;;;;;;;2.25;83.43;98404.66;5028295;28;20049;-64
2020/12/15 04:09:50;;;;;;;1999.90;999.90;;;;;;;2.21;83.67;98409.81;5027559;28;20053;-64
2020/12/15 04:12:17;;;;;;;1999.90;999.90;;;;;;;1.98;84.02;98411.16;5027423;28;20107;-64
2020/12/15 04:14:43;;;;;;;1999.90;999.90;;;;;;;1.73;85.33;98415.41;5027546;28;20053;-64
2020/12/15 04:17:09;;;;;;;1999.90;999.90;;;;;;;2.16;84.19;98406.25;5027379;28;20053;-64
2020/12/15 04:19:36;;;;;;;1999.90;999.90;;;;;;;2.16;83.63;98412.56;5027248;28;20099;-64
2020/12/15 04:22:03;;;;;;;1999.90;999.90;;;;;;;2.35;83.04;98410.13;5026860;28;20100;-64
2020/12/15 04:24:31;;;;;;;1999.90;999.90;;;;;;;2.37;82.74;98420.78;5027510;28;20107;-64
2020/12/15 04:26:58;;;;;;;1999.90;999.90;;;;;;;2.31;82.65;98414.50;5027249;28;20057;-64
2020/12/15 04:29:25;;;;;;;1999.90;999.90;;;;;;;2.28;82.39;98417.78;5027643;28;20111;-64
2020/12/15 04:31:51;;;;;;;1999.90;999.90;;;;;;;2.28;83.07;98417.78;5026371;28;20301;-64
2020/12/15 04:34:17;;;;;;;1999.90;999.90;;;;;;;2.23;82.83;98423.19;5027675;28;20438;-64
2020/12/15 04:36:43;;;;;;;1999.90;999.90;;;;;;;2.15;83.00;98415.56;5026910;28;20107;-64
2020/12/15 04:39:09;;;;;;;1999.90;999.90;;;;;;;2.17;83.86;98419.63;5026662;28;20574;-64
2020/12/15 04:41:36;;;;;;;1999.90;999.90;;;;;;;2.06;83.94;98424.25;5027108;28;20038;-64
2020/12/15 04:44:03;;;;;;;1999.90;999.90;;;;;;;2.30;83.53;98418.31;5026662;28;20065;-64
2020/12/15 04:46:31;;;;;;;1999.90;999.90;;;;;;;2.21;83.89;98420.75;5025804;28;20049;-64
2020/12/15 04:49:08;;;;;;;1999.90;999.90;;;;;;;2.17;83.53;98416.91;5026714;28;20077;-64
2020/12/15 04:51:43;;;;;;;1999.90;999.90;;;;;;;2.22;83.63;98416.94;5026497;28;20057;-64
2020/12/15 04:54:16;;;;;;;1999.90;999.90;;;;;;;2.15;84.06;98431.94;5026813;28;20050;-64
2020/12/15 04:56:49;;;;;;;1999.90;999.90;;;;;;;1.94;84.56;98421.75;5025521;28;20402;-64
2020/12/15 04:59:20;;;;;;;1999.90;999.90;;;;;;;1.85;85.54;98417.91;5021556;28;20781;-64
2020/12/15 05:01:49;;;;;;;1999.90;999.90;;;;;;;1.69;85.84;98425.19;5023648;28;20073;-64
2020/12/15 05:04:16;;;;;;;1999.90;999.90;;;;;;;1.94;85.26;98416.28;5022800;28;20049;-64
2020/12/15 05:06:44;;;;;;;1999.90;999.90;;;;;;;1.75;85.74;98415.94;5022775;28;20060;-64
2020/12/15 05:09:10;;;;;;;1999.90;999.90;;;;;;;1.88;85.37;98417.38;5022126;28;20127;-65
2020/12/15 05:11:36;;;;;;;1999.90;999.90;;;;;;;2.11;85.08;98415.25;5021422;28;20500;-65
2020/12/15 05:14:02;;;;;;;1999.90;999.90;;;;;;;1.70;86.52;98415.94;5022766;28;20049;-65
2020/12/15 05:16:38;;;;;;;1999.90;999.90;;;;;;;1.94;85.57;98412.75;5022538;28;20056;-66
2020/12/15 05:19:05;;;;;;;1999.90;999.90;;;;;;;2.14;85.21;98419.38;5022554;28;20229;-66
2020/12/15 05:21:31;;;;;;;1999.90;999.90;;;;;;;2.29;84.30;98427.56;5022986;28;20099;-66
2020/12/15 05:23:58;;;;;;;1999.90;999.90;;;;;;;2.47;83.47;98418.06;5022368;28;20050;-63
2020/12/15 05:26:25;;;;;;;1999.90;999.90;;;;;;;2.58;82.72;98422.44;5022854;28;20049;-63
2020/12/15 05:29:05;;;;;;;1999.90;999.90;;;;;;;2.45;82.84;98423.78;5022535;28;20412;-64
2020/12/15 05:31:32;;;;;;;1999.90;999.90;;;;;;;2.54;82.90;98426.81;5021446;28;20049;-64
2020/12/15 05:33:59;;;;;;;1999.90;999.90;;;;;;;2.22;84.20;98421.56;5021753;28;20142;-65
2020/12/15 05:36:25;;;;;;;1999.90;999.90;;;;;;;2.37;83.88;98424.34;5021482;28;20053;-65
2020/12/15 05:39:03;;;;;;;1999.90;999.90;;;;;;;2.62;83.34;98428.16;5016710;28;20103;-65
2020/12/15 05:41:32;;;;;;;1999.90;999.90;;;;;;;2.69;82.62;98428.72;5024762;28;20053;-65
2020/12/15 05:44:00;;;;;;;1999.90;999.90;;;;;;;2.50;83.40;98420.28;5022759;28;20049;-65
2020/12/15 05:46:30;;;;;;;1999.90;999.90;;;;;;;2.64;82.56;98417.81;5022904;28;20061;-66
2020/12/15 05:49:04;;;;;;;1999.90;999.90;;;;;;;2.62;83.06;98417.25;5022229;28;20088;-65
2020/12/15 05:51:43;;;;;;;1999.90;999.90;;;;;;;2.30;83.36;98412.84;5023222;28;20053;-65
2020/12/15 05:54:12;;;;;;;1999.90;999.90;;;;;;;2.57;83.16;98409.88;5022363;28;20342;-65
2020/12/15 05:56:39;;;;;;;1999.90;999.90;;;;;;;2.71;82.68;98417.53;5023143;28;20412;-65
2020/12/15 05:59:32;;;;;;;1999.90;999.90;;;;;;;2.20;83.61;98407.38;5021840;28;20436;-65
2020/12/15 06:02:08;;;;;;;1999.90;999.90;;;;;;;2.02;84.86;98412.22;5016861;28;20057;-65
2020/12/15 06:04:37;;;;;;;1999.90;999.90;;;;;;;2.02;85.64;98405.97;5018616;28;20053;-65
2020/12/15 06:07:05;;;;;;;1999.90;999.90;;;;;;;2.51;83.88;98400.03;5022807;28;20119;-65
2020/12/15 06:09:32;;;;;;;1999.90;999.90;;;;;;;2.42;83.26;98418.88;5022393;28;20057;-66
2020/12/15 06:11:59;;;;;;;1999.90;999.90;;;;;;;2.19;83.90;98416.63;5022513;28;20049;-65
2020/12/15 06:14:26;;;;;;;1999.90;999.90;;;;;;;2.63;82.87;98421.63;5022834;28;20045;-65
2020/12/15 06:16:53;;;;;;;1999.90;999.90;;;;;;;2.56;83.01;98416.44;5022208;28;20053;-65
2020/12/15 06:19:25;;;;;;;1999.90;999.90;;;;;;;2.12;84.45;98416.91;5022802;28;20045;-65
2020/12/15 06:21:56;;;;;;;1999.90;999.90;;;;;;;2.27;84.19;98427.84;5022119;28;20061;-65
2020/12/15 06:24:38;;;;;;;1999.90;999.90;;;;;;;2.21;84.58;98430.84;5022477;28;20532;-65
2020/12/15 06:27:07;;;;;;;1999.90;999.90;;;;;;;2.37;83.80;98426.25;5022018;28;20053;-65
2020/12/15 06:29:38;;;;;;;1999.90;999.90;;;;;;;2.47;83.41;98429.81;5022172;28;20536;-65
2020/12/15 06:32:16;;;;;;;1999.90;999.90;;;;;;;2.52;83.33;98430.91;5022361;28;20049;-65
2020/12/15 06:34:45;;;;;;;1999.90;999.90;;;;;;;2.55;83.33;98430.38;5022136;28;20061;-65
2020/12/15 06:37:13;;;;;;;1999.90;999.90;;;;;;;2.52;83.56;98426.28;5021634;28;20053;-65
2020/12/15 06:39:55;;;;;;;1999.90;999.90;;;;;;;2.56;83.07;98434.72;5021429;28;20053;-65
2020/12/15 06:42:22;;;;;;;1999.90;999.90;;;;;;;2.57;83.11;98436.38;5019007;28;20076;-65
2020/12/15 06:44:58;;;;;;;1999.90;999.90;;;;;;;2.49;83.59;98437.72;5021646;28;20081;-65
2020/12/15 06:47:26;;;;;;;1999.90;999.90;;;;;;;2.80;82.58;98438.56;5021435;28;20049;-65
2020/12/15 06:49:52;;;;;;;1999.90;999.90;;;;;;;2.91;81.54;98444.84;5021339;28;20572;-65
2020/12/15 06:52:27;;;;;;;1999.90;999.90;;;;;;;2.52;82.59;98437.19;5021221;28;20417;-65
2020/12/15 06:54:57;;;;;;;1999.90;999.90;;;;;;;2.46;82.42;98450.00;5021460;28;20053;-65
2020/12/15 06:57:30;;;;;;;1999.90;999.90;;;;;;;2.61;82.38;98430.09;5021433;28;20057;-65
2020/12/15 06:59:58;;;;;;;1999.90;999.90;;;;;;;2.44;83.30;98430.34;5021669;28;20685;-65
2020/12/15 07:02:32;;;;;;;1999.90;999.90;;;;;;;2.03;84.37;98430.25;5021194;28;20115;-65
2020/12/15 07:05:25;;;;;;;1999.90;999.90;;;;;;;2.35;84.66;98431.16;5021102;28;20164;-65
2020/12/15 07:07:53;;;;;;;1999.90;999.90;;;;;;;2.71;83.11;98434.75;5009299;28;20460;-65
2020/12/15 07:10:21;;;;;;;1999.90;999.90;;;;;;;2.54;82.95;98429.53;5021430;28;20049;-65
2020/12/15 07:12:48;;;;;;;1999.90;999.90;;;;;;;2.59;83.27;98434.19;5020887;28;20417;-65
2020/12/15 07:15:15;;;;;;;1999.90;999.90;;;;;;;2.47;83.51;98429.81;5021496;28;20053;-64
2020/12/15 07:17:51;;;;;;;1999.90;999.90;;;;;;;2.86;82.71;98435.84;5021386;28;20420;-65
2020/12/15 07:20:19;;;;;;;1999.90;999.90;;;;;;;2.89;82.14;98432.56;5021540;28;20130;-64
2020/12/15 07:22:45;;;;;;;1999.90;999.90;;;;;;;2.62;83.17;98439.09;5020972;28;20103;-64
2020/12/15 07:25:12;;;;;;;1999.90;999.90;;;;;;;2.52;83.96;98445.38;5021217;28;20452;-64
2020/12/15 07:27:40;;;;;;;1999.90;999.90;;;;;;;2.66;83.86;98442.94;5021017;28;20053;-64
2020/12/15 07:30:20;;;;;;;1999.90;999.90;;;;;;;2.54;83.90;98440.47;5020585;28;20056;-64
2020/12/15 07:32:48;;;;;;;1999.90;999.90;;;;;;;2.81;83.12;98434.75;5021369;28;20050;-64
2020/12/15 07:35:20;;;;;;;1999.90;999.90;;;;;;;3.06;82.13;98435.84;5021314;28;20053;-64
2020/12/15 07:37:48;;;;;;;1999.90;999.90;;;;;;;3.47;80.84;98438.50;5012370;28;20057;-65
2020/12/15 07:40:18;;;;;;;1999.90;999.90;;;;;;;3.60;80.25;98444.50;5020612;28;20096;-65
2020/12/15 07:43:01;;;;;;;1999.90;999.90;;;;;;;3.29;80.65;98430.88;5021448;28;20052;-65
2020/12/15 07:45:29;;;;;;;1999.90;999.90;;;;;;;3.35;80.74;98443.47;5020899;28;20056;-65
2020/12/15 07:47:56;;;;;;;1999.90;999.90;;;;;;;3.28;80.75;98430.06;5020980;28;20045;-64
2020/12/15 07:50:28;;;;;;;1999.90;999.90;;;;;;;3.22;81.44;98433.91;5021029;28;20792;-65
2020/12/15 07:52:55;;;;;;;1999.90;999.90;;;;;;;3.22;81.76;98435.84;5021097;28;20108;-65
2020/12/15 07:55:22;;;;;;;1999.90;999.90;;;;;;;3.24;81.82;98436.38;5021160;28;20064;-65
2020/12/15 07:57:49;;;;;;;1999.90;999.90;;;;;;;3.31;81.41;98434.97;5020569;28;20075;-65
2020/12/15 08:00:22;;;;;;;1999.90;999.90;;;;;;;3.64;79.85;98434.66;5021293;28;20115;-65
2020/12/15 08:02:50;;;;;;;1999.90;999.90;;;;;;;3.44;80.48;98436.34;5019843;28;20368;-65
2020/12/15 08:05:22;;;;;;;1999.90;999.90;;;;;;;3.66;80.17;98438.75;5021040;28;20061;-65
2020/12/15 08:07:50;;;;;;;1999.90;999.90;;;;;;;3.68;80.24;98446.69;5017401;28;20049;-65
2020/12/15 08:10:23;;;;;;;1999.90;999.90;;;;;;;4.12;78.63;98445.13;5021225;28;20045;-65
2020/12/15 08:12:49;;;;;;;1999.90;999.90;;;;;;;4.14;78.39;98449.22;5019916;28;20168;-65
2020/12/15 08:15:16;;;;;;;1999.90;999.90;;;;;;;4.14;78.56;98454.69;5020918;28;20057;-65
2020/12/15 08:17:46;;;;;;;1999.90;999.90;;;;;;;4.01;78.77;98449.84;5019800;28;20554;-65
2020/12/15 08:20:15;;;;;;;1999.90;999.90;;;;;;;3.87;79.15;98444.97;5020362;28;20053;-65
2020/12/15 08:22:45;;;;;;;1999.90;999.90;;;;;;;4.12;78.95;98445.94;5024065;28;20791;-65
2020/12/15 08:25:14;;;;;;;1999.90;999.90;;;;;;;4.31;78.04;98439.84;5024236;28;20243;-65
2020/12/15 08:27:50;;;;;;;1999.90;999.90;;;;;;;4.26;78.18;98448.06;5023605;28;20064;-65
2020/12/15 08:30:19;;;;;;;1999.90;999.90;;;;;;;4.15;78.79;98450.03;5023424;28;20049;-65
2020/12/15 08:32:48;;;;;;;1999.90;999.90;;;;;;;4.42;78.06;98455.09;5024028;28;20110;-65
2020/12/15 08:35:21;;;;;;;1999.90;999.90;;;;;;;4.38;78.07;98454.03;5024179;28;20046;-65
2020/12/15 08:37:52;;;;;;;1999.90;999.90;;;;;;;4.26;78.45;98445.31;5024373;28;20053;-65
2020/12/15 08:40:18;;;;;;;1999.90;999.90;;;;;;;4.28;78.94;98441.22;5023994;28;20300;-65
2020/12/15 08:42:46;;;;;;;1999.90;999.90;;;;;;;3.95;79.54;98440.81;5023353;28;20527;-66
2020/12/15 08:45:17;;;;;;;1999.90;999.90;;;;;;;4.18;79.12;98450.31;5023712;28;20049;-66
2020/12/15 08:47:48;;;;;;;1999.90;999.90;;;;;;;4.26;78.88;98450.81;5023493;28;20090;-65
2020/12/15 08:50:16;;;;;;;1999.90;999.90;;;;;;;4.31;78.26;98443.38;5023868;28;20084;-65
2020/12/15 08:52:43;;;;;;;1999.90;999.90;;;;;;;3.88;79.34;98456.72;5023845;28;20057;-65
2020/12/15 08:55:13;;;;;;;1999.90;999.90;;;;;;;3.99;79.35;98452.84;5023640;28;20579;-66
2020/12/15 08:57:40;;;;;;;1999.90;999.90;;;;;;;3.96;78.34;98449.84;5023668;28;20049;-66
2020/12/15 09:00:14;;;;;;;1999.90;999.90;;;;;;;4.29;78.52;98455.72;5023201;28;20057;-66
2020/12/15 09:02:41;;;;;;;1999.90;999.90;;;;;;;4.21;78.53;98465.34;5023584;28;20517;-65
2020/12/15 09:05:09;;;;;;;1999.90;999.90;;;;;;;4.30;77.31;98460.09;5022907;28;20100;-66
2020/12/15 09:07:36;;;;;;;1999.90;999.90;;;;;;;4.34;77.74;98472.13;5021476;28;20053;-66
2020/12/15 09:10:16;;;;;;;1999.90;999.90;;;;;;;4.51;77.79;98464.38;5023492;28;20859;-65
2020/12/15 09:12:47;;;;;;;1999.90;999.90;;;;;;;4.39;78.28;98472.09;5023267;28;20146;-65
2020/12/15 09:15:14;;;;;;;1999.90;999.90;;;;;;;4.69;77.98;98464.78;5023380;28;20057;-65
2020/12/15 09:17:41;;;;;;;1999.90;999.90;;;;;;;4.74;77.47;98453.81;5023417;28;20439;-65
2020/12/15 09:20:08;;;;;;;1999.90;999.90;;;;;;;4.64;77.64;98460.16;5023829;28;20461;-65
2020/12/15 09:22:38;;;;;;;1999.90;999.90;;;;;;;4.52;78.36;98457.78;5022799;28;20052;-65
2020/12/15 09:25:11;;;;;;;1999.90;999.90;;;;;;;4.83;77.89;98452.09;5023813;28;20371;-66
2020/12/15 09:27:42;;;;;;;1999.90;999.90;;;;;;;4.74;77.48;98457.34;5022938;28;20080;-65
2020/12/15 09:30:08;;;;;;;1999.90;999.90;;;;;;;4.68;78.05;98461.25;5023321;28;20053;-65
2020/12/15 09:32:35;;;;;;;1999.90;999.90;;;;;;;4.91;77.74;98456.13;5021810;28;20509;-65
2020/12/15 09:35:02;;;;;;;1999.90;999.90;;;;;;;4.80;77.82;98451.84;5022960;28;20053;-65
2020/12/15 09:37:28;;;;;;;1999.90;999.90;;;;;;;4.88;77.47;98454.81;5023098;28;20076;-66
2020/12/15 09:39:56;;;;;;;1999.90;999.90;;;;;;;4.75;78.24;98449.97;5013107;28;20058;-65
2020/12/15 09:42:24;;;;;;;1999.90;999.90;;;;;;;4.61;79.18;98451.72;5022966;28;20566;-65
2020/12/15 09:44:51;;;;;;;1999.90;999.90;;;;;;;4.79;77.91;98442.78;5022249;28;20057;-66
2020/12/15 09:47:17;;;;;;;1999.90;999.90;;;;;;;5.09;77.13;98446.41;5022961;28;20100;-66
2020/12/15 09:49:43;;;;;;;1999.90;999.90;;;;;;;5.18;77.42;98439.22;5022494;28;20053;-65
2020/12/15 09:52:09;;;;;;;1999.90;999.90;;;;;;;5.19;76.70;98440.03;5022479;28;20053;-66
2020/12/15 09:54:36;;;;;;;1999.90;999.90;;;;;;;5.12;76.49;98440.34;5022585;28;20456;-66
2020/12/15 09:57:02;;;;;;;1999.90;999.90;;;;;;;5.13;76.75;98436.50;5022708;28;20650;-66
2020/12/15 09:59:28;;;;;;;1999.90;999.90;;;;;;;5.51;75.58;98433.97;5022969;28;20103;-66
2020/12/15 10:01:54;;;;;;;1999.90;999.90;;;;;;;5.54;75.22;98424.31;5014136;28;20111;-66
2020/12/15 10:04:21;;;;;;;1999.90;999.90;;;;;;;5.81;74.26;98419.06;5013456;28;20045;-66
2020/12/15 10:06:47;;;;;;;1999.90;999.90;;;;;;;5.84;74.31;98414.94;5017094;28;20080;-66
2020/12/15 10:09:15;;;;;;;1999.90;999.90;;;;;;;5.39;74.73;98428.03;5022306;28;20049;-66
2020/12/15 10:11:44;;;;;;;1999.90;999.90;;;;;;;5.11;75.34;98428.56;5022107;28;20104;-66
2020/12/15 10:14:10;;;;;;;1999.90;999.90;;;;;;;5.55;74.06;98426.78;5022073;28;20067;-66
2020/12/15 10:16:36;;;;;;;1999.90;999.90;;;;;;;5.98;73.11;98417.78;5022286;28;20056;-66
2020/12/15 10:19:03;;;;;;;1999.90;999.90;;;;;;;5.51;74.36;98433.13;5022193;28;20063;-66
2020/12/15 10:21:30;;;;;;;1999.90;999.90;;;;;;;5.58;73.79;98417.13;5021895;28;20057;-66
2020/12/15 10:24:02;;;;;;;1999.90;999.90;;;;;;;5.78;73.42;98418.84;5022014;28;20254;-66
2020/12/15 10:26:28;;;;;;;1999.90;999.90;;;;;;;5.54;73.34;98421.56;5022311;28;20041;-65
2020/12/15 10:28:56;;;;;;;1999.90;999.90;;;;;;;4.93;74.99;98421.06;5022252;28;20467;-66
2020/12/15 10:31:22;;;;;;;1999.90;999.90;;;;;;;5.11;74.93;98427.75;5021740;28;20059;-66
2020/12/15 10:33:49;;;;;;;1999.90;999.90;;;;;;;5.52;74.47;98427.34;5021813;28;20544;-66
2020/12/15 10:36:16;;;;;;;1999.90;999.90;;;;;;;5.62;73.27;98431.91;5021529;28;20053;-65
2020/12/15 10:38:43;;;;;;;1999.90;999.90;;;;;;;5.88;73.25;98435.19;5021639;28;20496;-66
2020/12/15 10:41:10;;;;;;;1999.90;999.90;;;;;;;6.02;72.28;98434.50;5022121;28;20060;-66
2020/12/15 10:43:36;;;;;;;1999.90;999.90;;;;;;;5.90;72.75;98435.72;5021335;28;20112;-66
2020/12/15 10:46:24;;;;;;;1999.90;999.90;;;;;;;5.79;72.84;98429.53;5022059;28;20056;-66
2020/12/15 10:48:50;;;;;;;1999.90;999.90;;;;;;;5.73;72.84;98435.34;5021148;28;20100;-66
2020/12/15 10:51:16;;;;;;;1999.90;999.90;;;;;;;6.39;71.37;98433.75;5021233;28;20133;-66
2020/12/15 10:53:42;;;;;;;1999.90;999.90;;;;;;;5.59;72.43;98432.50;5054994;28;20400;-66
2020/12/15 10:56:12;;;;;;;1999.90;999.90;;;;;;;5.61;73.37;98425.63;5022432;28;20580;-65
2020/12/15 10:58:39;;;;;;;1999.90;999.90;;;;;;;5.54;73.29;98427.88;5022751;28;20196;-64
2020/12/15 11:01:07;;;;;;;1999.90;999.90;;;;;;;5.49;72.97;98416.16;5023104;28;20053;-64
2020/12/15 11:03:34;;;;;;;1999.90;999.90;;;;;;;5.67;72.97;98411.84;5021996;28;20139;-64
2020/12/15 11:06:02;;;;;;;1999.90;999.90;;;;;;;5.42;73.47;98417.31;5023171;28;20207;-64
2020/12/15 11:08:28;;;;;;;1999.90;999.90;;;;;;;5.42;73.76;98416.50;5022752;28;20131;-65